Time;durP1;ratioP1;P1;durP2;ratioP2;P2;SDS_P1;SDS_P2;PMS_P1;PMS_P2;Temp;Humidity;BMP_temperature;BMP_pressure;BME280_temperature;BME280_humidity;BME280_pressure;Samples;Min_cycle;Max_cycle;Signal;HPM_P1;HPM_P2
2022/07/05 00:01:03;;;;;;;11.13;4.10;;;24.10;99.90;;;;;;4995937;28;20061;-44
2022/07/05 00:03:29;;;;;;;13.18;3.88;;;24.10;99.90;;;;;;4995552;28;20026;-45
2022/07/05 00:05:56;;;;;;;11.15;3.25;;;24.10;99.90;;;;;;4995538;28;20038;-45
2022/07/05 00:08:22;;;;;;;15.73;3.53;;;24.10;99.90;;;;;;4995260;28;20037;-45
2022/07/05 00:10:48;;;;;;;17.58;4.28;;;24.20;99.90;;;;;;4995002;28;20030;-44
2022/07/05 00:13:15;;;;;;;9.20;3.72;;;24.20;99.90;;;;;;4995323;28;20025;-45
2022/07/05 00:15:41;;;;;;;12.25;3.28;;;24.30;99.90;;;;;;4994945;28;20034;-44
2022/07/05 00:18:07;;;;;;;12.75;3.40;;;24.30;99.90;;;;;;4995092;28;20027;-45
2022/07/05 00:20:33;;;;;;;11.57;2.92;;;24.40;99.90;;;;;;4977581;28;20026;-45
2022/07/05 00:22:59;;;;;;;6.63;2.55;;;24.40;99.90;;;;;;4995226;28;20018;-45
2022/07/05 00:25:25;;;;;;;10.23;3.55;;;24.50;99.90;;;;;;4995063;28;20041;-45
2022/07/05 00:27:53;;;;;;;8.68;2.70;;;24.50;99.90;;;;;;4994885;28;20053;-45
2022/07/05 00:30:19;;;;;;;8.85;2.47;;;24.50;99.90;;;;;;4994683;28;20030;-45
2022/07/05 00:32:45;;;;;;;8.75;2.88;;;24.60;99.90;;;;;;4994901;28;20047;-42
2022/07/05 00:35:11;;;;;;;11.00;3.28;;;24.60;99.90;;;;;;4994679;28;20411;-42
2022/07/05 00:37:37;;;;;;;12.95;3.00;;;24.70;99.90;;;;;;4994580;28;20041;-42
2022/07/05 00:40:05;;;;;;;10.63;2.65;;;24.70;99.90;;;;;;4994648;28;20105;-42
2022/07/05 00:42:31;;;;;;;7.25;2.45;;;24.70;99.90;;;;;;4994530;28;20034;-43
2022/07/05 00:44:57;;;;;;;5.55;2.10;;;24.70;99.90;;;;;;4994919;28;20407;-44
2022/07/05 00:47:23;;;;;;;9.77;2.90;;;24.80;99.90;;;;;;4994363;28;20036;-44
2022/07/05 00:49:50;;;;;;;11.07;3.58;;;24.80;99.90;;;;;;4994558;28;20038;-44
2022/07/05 00:52:16;;;;;;;15.15;3.90;;;24.90;99.90;;;;;;4976976;28;20391;-43
2022/07/05 00:54:42;;;;;;;10.27;3.65;;;24.90;99.90;;;;;;4994574;28;20023;-44
2022/07/05 00:57:08;;;;;;;14.77;3.83;;;24.90;99.90;;;;;;4994366;28;20106;-44
2022/07/05 00:59:34;;;;;;;16.13;3.80;;;24.90;99.90;;;;;;5009577;23;20090;-41
2022/07/05 01:02:01;;;;;;;11.20;3.63;;;24.90;99.90;;;;;;4994423;28;20066;-41
2022/07/05 01:04:27;;;;;;;13.13;3.88;;;24.90;99.90;;;;;;4994063;28;20032;-43
2022/07/05 01:06:53;;;;;;;25.38;5.70;;;25.00;99.90;;;;;;4994126;28;20076;-42
2022/07/05 01:09:21;;;;;;;21.60;6.25;;;25.00;99.90;;;;;;4993873;28;20026;-41
2022/07/05 01:11:48;;;;;;;14.45;4.75;;;24.90;99.90;;;;;;4994183;28;20026;-41
2022/07/05 01:14:20;;;;;;;12.18;3.78;;;24.90;99.90;;;;;;4994079;28;20093;-41
2022/07/05 01:16:48;;;;;;;17.98;4.47;;;25.00;99.90;;;;;;4993934;28;20076;-41
2022/07/05 01:19:14;;;;;;;17.52;4.30;;;24.90;99.90;;;;;;4993899;28;20030;-41
2022/07/05 01:21:42;;;;;;;18.25;5.63;;;25.00;99.90;;;;;;4993846;28;20033;-41
2022/07/05 01:24:12;;;;;;;25.27;5.30;;;24.90;99.90;;;;;;4993739;28;20485;-41
2022/07/05 01:26:38;;;;;;;20.35;5.85;;;24.80;99.90;;;;;;4993711;28;20030;-41
2022/07/05 01:29:05;;;;;;;18.98;4.53;;;24.70;99.90;;;;;;4993574;28;20018;-41
2022/07/05 01:31:31;;;;;;;13.60;4.83;;;24.60;99.90;;;;;;4993887;28;20030;-41
2022/07/05 01:33:57;;;;;;;19.10;4.72;;;24.60;99.90;;;;;;4993570;28;20030;-41
2022/07/05 01:36:23;;;;;;;21.05;4.88;;;24.60;99.90;;;;;;4993635;28;20030;-41
2022/07/05 01:38:50;;;;;;;18.10;5.53;;;24.60;99.90;;;;;;4994114;28;20519;-41
2022/07/05 01:41:16;;;;;;;20.90;4.60;;;24.60;99.90;;;;;;4993501;28;20054;-41
2022/07/05 01:43:42;;;;;;;14.25;4.13;;;24.50;99.90;;;;;;4993511;28;20045;-41
2022/07/05 01:46:09;;;;;;;17.42;4.57;;;24.50;99.90;;;;;;4993196;28;20102;-40
2022/07/05 01:48:38;;;;;;;14.77;4.00;;;24.50;99.90;;;;;;4993455;28;20028;-40
2022/07/05 01:51:07;;;;;;;15.35;4.07;;;24.60;99.90;;;;;;4993424;28;20073;-40
2022/07/05 01:53:33;;;;;;;11.90;4.10;;;24.60;99.90;;;;;;4993325;28;20047;-42
2022/07/05 01:56:03;;;;;;;11.75;3.28;;;24.60;99.90;;;;;;4993026;28;20037;-41
2022/07/05 01:58:30;;;;;;;10.23;3.38;;;24.70;99.90;;;;;;4992877;28;20182;-41
2022/07/05 02:00:57;;;;;;;10.07;3.40;;;24.70;99.90;;;;;;4995309;23;20116;-47
2022/07/05 02:03:23;;;;;;;10.55;3.30;;;24.80;99.90;;;;;;4973436;28;20027;-47
2022/07/05 02:05:49;;;;;;;7.85;2.72;;;24.80;99.90;;;;;;4973291;28;20039;-48
2022/07/05 02:08:17;;;;;;;8.40;3.55;;;24.90;99.90;;;;;;4973397;28;20404;-47
2022/07/05 02:10:42;;;;;;;12.50;3.13;;;24.90;99.90;;;;;;4973290;28;20125;-47
2022/07/05 02:13:09;;;;;;;8.18;3.40;;;25.00;99.90;;;;;;4973337;28;20063;-47
2022/07/05 02:15:37;;;;;;;11.10;3.60;;;25.00;99.90;;;;;;4973469;28;20027;-47
2022/07/05 02:18:04;;;;;;;11.95;3.60;;;25.00;99.90;;;;;;4973562;28;20026;-47
2022/07/05 02:20:31;;;;;;;14.68;3.85;;;25.10;99.90;;;;;;4955911;28;20023;-47
2022/07/05 02:22:58;;;;;;;10.15;3.17;;;25.10;99.90;;;;;;4973181;28;20400;-47
2022/07/05 02:25:24;;;;;;;13.40;3.37;;;25.10;99.90;;;;;;4955652;28;20042;-47
2022/07/05 02:27:52;;;;;;;11.18;4.07;;;25.10;99.90;;;;;;4972999;28;20023;-47
2022/07/05 02:30:18;;;;;;;;;;;25.10;99.90;;;;;;4973625;28;20019;-48
2022/07/05 02:32:44;;;;;;;13.52;3.95;;;25.10;99.90;;;;;;4973176;28;19914;-47
2022/07/05 02:35:10;;;;;;;11.40;4.18;;;25.00;99.90;;;;;;4972983;28;20038;-47
2022/07/05 02:37:36;;;;;;;12.48;3.63;;;25.00;99.90;;;;;;4973237;28;20109;-47
2022/07/05 02:40:04;;;;;;;13.93;3.92;;;25.00;99.90;;;;;;4973107;28;20106;-47
2022/07/05 02:42:30;;;;;;;;;;;24.90;99.90;;;;;;4973219;28;20029;-47
2022/07/05 02:44:55;;;;;;;10.82;3.33;;;25.00;99.90;;;;;;4972776;28;19918;-47
2022/07/05 02:47:21;;;;;;;10.15;3.17;;;25.00;99.90;;;;;;4972736;28;20038;-46
2022/07/05 02:49:47;;;;;;;10.82;3.22;;;25.00;99.90;;;;;;4972849;28;20027;-47
2022/07/05 02:52:13;;;;;;;15.05;3.47;;;25.00;99.90;;;;;;4972781;28;20062;-46
2022/07/05 02:54:39;;;;;;;10.20;3.28;;;25.00;99.90;;;;;;4972707;28;20053;-46
2022/07/05 02:57:05;;;;;;;13.15;3.42;;;25.10;99.90;;;;;;4972672;28;20035;-47
2022/07/05 02:59:31;;;;;;;6.30;3.30;;;25.10;99.90;;;;;;4973009;28;20019;-46
2022/07/05 03:01:57;;;;;;;9.32;2.60;;;25.10;99.90;;;;;;4972698;28;20045;-49
2022/07/05 03:04:23;;;;;;;7.30;2.65;;;25.20;99.90;;;;;;4972538;28;20147;-48
2022/07/05 03:06:49;;;;;;;9.38;3.13;;;25.20;99.90;;;;;;4972528;28;20103;-46
2022/07/05 03:09:14;;;;;;;13.05;3.88;;;25.20;99.90;;;;;;4972562;28;20033;-46
2022/07/05 03:11:40;;;;;;;11.73;4.50;;;25.20;99.90;;;;;;4971746;28;20031;-46
2022/07/05 03:14:06;;;;;;;12.68;3.35;;;25.20;99.90;;;;;;4972761;28;20034;-46
2022/07/05 03:16:32;;;;;;;8.57;2.72;;;25.20;99.90;;;;;;4972431;28;20027;-45
2022/07/05 03:18:58;;;;;;;8.57;3.70;;;25.10;99.90;;;;;;4972484;28;20114;-45
2022/07/05 03:21:23;;;;;;;17.00;4.03;;;25.10;99.90;;;;;;4955087;28;20111;-46
2022/07/05 03:23:49;;;;;;;11.30;3.63;;;25.00;99.90;;;;;;4972579;28;20027;-46
2022/07/05 03:26:15;;;;;;;11.48;3.15;;;25.00;99.90;;;;;;4972398;28;20043;-46
2022/07/05 03:28:40;;;;;;;7.80;3.42;;;25.00;99.90;;;;;;4972446;28;20052;-46
2022/07/05 03:31:06;;;;;;;9.90;3.28;;;25.10;99.90;;;;;;4971265;28;20038;-46
2022/07/05 03:33:32;;;;;;;11.82;3.40;;;25.20;99.90;;;;;;4972378;28;20392;-49
2022/07/05 03:35:58;;;;;;;7.60;3.47;;;25.20;99.90;;;;;;4972149;28;20059;-46
2022/07/05 03:38:24;;;;;;;10.57;4.32;;;25.20;99.90;;;;;;4972126;28;20027;-46
2022/07/05 03:40:49;;;;;;;8.20;2.78;;;25.30;99.90;;;;;;4954968;28;20023;-46
2022/07/05 03:43:15;;;;;;;10.73;3.38;;;25.30;99.90;;;;;;4972325;28;20019;-46
2022/07/05 03:45:41;;;;;;;12.57;3.47;;;25.30;99.90;;;;;;4971921;28;20043;-46
2022/07/05 03:48:07;;;;;;;7.40;2.97;;;25.30;99.90;;;;;;4972520;28;20039;-46
2022/07/05 03:50:33;;;;;;;10.20;3.03;;;25.30;99.90;;;;;;4972171;28;20019;-46
2022/07/05 03:52:58;;;;;;;5.20;2.63;;;25.30;99.90;;;;;;4972239;28;20150;-47
2022/07/05 03:55:24;;;;;;;9.30;2.85;;;25.30;99.90;;;;;;4972150;28;20496;-47
2022/07/05 03:57:50;;;;;;;10.55;3.22;;;25.30;99.90;;;;;;4971991;28;20129;-47
2022/07/05 04:00:16;;;;;;;13.05;3.15;;;25.30;99.90;;;;;;4965092;28;20058;-47
2022/07/05 04:02:42;;;;;;;12.35;3.38;;;25.30;99.90;;;;;;4953262;29;20031;-47
2022/07/05 04:05:07;;;;;;;10.75;3.30;;;25.30;99.90;;;;;;4952784;29;20105;-47
2022/07/05 04:07:33;;;;;;;9.55;3.65;;;25.40;99.90;;;;;;4952858;29;20501;-47
2022/07/05 04:10:00;;;;;;;9.73;3.50;;;25.30;99.90;;;;;;4952616;29;20035;-47
2022/07/05 04:12:26;;;;;;;12.43;3.80;;;25.30;99.90;;;;;;4935542;29;20023;-47
2022/07/05 04:14:51;;;;;;;16.90;4.30;;;25.30;99.90;;;;;;4952570;29;20031;-47
2022/07/05 04:17:17;;;;;;;12.10;4.57;;;25.30;99.90;;;;;;4952466;29;20031;-47
2022/07/05 04:19:43;;;;;;;18.50;3.58;;;25.30;99.90;;;;;;4952601;29;20038;-47
2022/07/05 04:22:09;;;;;;;12.90;4.07;;;25.30;99.90;;;;;;4952800;28;20053;-47
2022/07/05 04:25:16;;;;;;;9.45;3.70;;;25.30;99.90;;;;;;4955790;29;20059;-47
2022/07/05 04:27:21;;;;;;;6.82;2.95;;;25.30;99.90;;;;;;4956029;29;20035;-47
2022/07/05 04:29:47;;;;;;;9.98;4.03;;;25.30;99.90;;;;;;4938874;29;20062;-47
2022/07/05 04:32:13;;;;;;;8.88;3.60;;;25.30;99.90;;;;;;4956262;29;20031;-47
2022/07/05 04:34:38;;;;;;;10.48;3.70;;;25.30;99.90;;;;;;4956179;29;20058;-47
2022/07/05 04:37:04;;;;;;;16.23;3.65;;;25.30;99.90;;;;;;4956037;29;20054;-47
2022/07/05 04:39:30;;;;;;;11.93;3.38;;;25.30;99.90;;;;;;4956184;29;20027;-47
2022/07/05 04:41:56;;;;;;;18.58;4.20;;;25.30;99.90;;;;;;4955864;29;20473;-48
2022/07/05 04:44:21;;;;;;;10.50;3.42;;;25.30;99.90;;;;;;4955772;29;20102;-47
2022/07/05 04:46:47;;;;;;;13.02;3.95;;;25.30;99.90;;;;;;4955781;29;20122;-47
2022/07/05 04:49:13;;;;;;;14.35;4.30;;;25.30;99.90;;;;;;4955992;29;20516;-49
2022/07/05 04:51:38;;;;;;;8.73;2.97;;;25.30;99.90;;;;;;4955653;29;20063;-47
2022/07/05 04:54:04;;;;;;;10.68;3.15;;;25.30;99.90;;;;;;4955701;29;20023;-47
2022/07/05 04:56:30;;;;;;;9.07;3.25;;;25.30;99.90;;;;;;4955530;29;20024;-48
2022/07/05 04:58:56;;;;;;;14.68;4.03;;;25.30;99.90;;;;;;4955654;29;20035;-47
2022/07/05 05:01:21;;;;;;;15.32;5.00;;;25.40;99.90;;;;;;4971857;28;20049;-47
2022/07/05 05:03:47;;;;;;;16.13;3.17;;;25.40;99.90;;;;;;4974714;28;20042;-47
2022/07/05 05:06:14;;;;;;;15.35;4.72;;;25.40;99.90;;;;;;4974879;28;20038;-47
2022/07/05 05:08:41;;;;;;;5.93;2.85;;;25.40;99.90;;;;;;4974936;28;20031;-47
2022/07/05 05:11:07;;;;;;;12.98;3.30;;;25.30;99.90;;;;;;4974611;28;20083;-47
2022/07/05 05:13:33;;;;;;;12.60;3.58;;;25.40;99.90;;;;;;4974928;28;20026;-47
2022/07/05 05:16:00;;;;;;;15.45;3.47;;;25.40;99.90;;;;;;4974459;28;20027;-47
2022/07/05 05:18:27;;;;;;;16.52;4.60;;;25.40;99.90;;;;;;4974555;28;20135;-47
2022/07/05 05:20:54;;;;;;;14.55;4.03;;;25.40;99.90;;;;;;4974650;28;20045;-47
2022/07/05 05:23:20;;;;;;;;;;;25.40;99.90;;;;;;4974927;28;20023;-47
2022/07/05 05:25:46;;;;;;;22.40;4.35;;;25.50;99.90;;;;;;4974193;28;19921;-47
2022/07/05 05:28:12;;;;;;;25.23;4.95;;;25.40;99.90;;;;;;4974573;28;20027;-47
2022/07/05 05:30:38;;;;;;;23.15;5.15;;;25.40;99.90;;;;;;4974271;28;20061;-46
2022/07/05 05:33:03;;;;;;;21.02;5.40;;;25.30;99.90;;;;;;4974260;28;20540;-46
2022/07/05 05:35:29;;;;;;;27.48;5.78;;;25.20;99.90;;;;;;4973302;28;20366;-47
2022/07/05 05:37:56;;;;;;;20.13;4.93;;;25.20;99.90;;;;;;4974103;28;20031;-49
2022/07/05 05:40:23;;;;;;;27.93;5.10;;;25.20;99.90;;;;;;4974069;28;20031;-48
2022/07/05 05:42:51;;;;;;;18.35;5.07;;;25.10;99.90;;;;;;4973873;28;20623;-47
2022/07/05 05:45:18;;;;;;;19.58;5.15;;;25.10;99.90;;;;;;4974222;28;20404;-48
2022/07/05 05:47:52;;;;;;;20.60;5.15;;;25.10;99.90;;;;;;4956941;28;20504;-47
2022/07/05 05:50:23;;;;;;;21.92;5.80;;;25.10;99.90;;;;;;4973890;28;20034;-48
2022/07/05 05:52:49;;;;;;;19.90;4.95;;;25.10;99.90;;;;;;4973986;28;20022;-48
2022/07/05 05:55:15;;;;;;;15.13;5.10;;;25.10;99.90;;;;;;4973966;28;20031;-47
2022/07/05 05:57:42;;;;;;;20.67;4.93;;;25.10;99.90;;;;;;4973755;28;20548;-47
2022/07/05 06:00:09;;;;;;;19.67;5.03;;;25.20;99.90;;;;;;4973438;28;20548;-48
2022/07/05 06:02:34;;;;;;;21.60;4.95;;;25.20;99.90;;;;;;4956352;28;20035;-47
2022/07/05 06:05:00;;;;;;;14.18;4.60;;;25.10;99.90;;;;;;4973552;28;20097;-48
2022/07/05 06:07:26;;;;;;;15.18;4.75;;;25.20;99.90;;;;;;4973675;28;20481;-48
2022/07/05 06:09:52;;;;;;;15.48;3.90;;;25.20;99.90;;;;;;4973495;28;20022;-48
2022/07/05 06:12:18;;;;;;;16.95;5.40;;;25.20;99.90;;;;;;4973637;28;20119;-47
2022/07/05 06:14:44;;;;;;;23.65;4.90;;;25.30;99.90;;;;;;4973566;28;20523;-48
2022/07/05 06:17:10;;;;;;;10.98;4.88;;;25.30;99.90;;;;;;4973426;28;20027;-48
2022/07/05 06:19:35;;;;;;;15.25;4.00;;;25.30;99.90;;;;;;4973403;28;20078;-48
2022/07/05 06:22:01;;;;;;;14.95;3.67;;;25.40;99.90;;;;;;4973305;28;20031;-48
2022/07/05 06:24:27;;;;;;;13.07;4.22;;;25.40;99.90;;;;;;4973223;28;20495;-47
2022/07/05 06:26:53;;;;;;;10.18;3.63;;;25.40;99.90;;;;;;4973160;28;20571;-47
2022/07/05 06:29:19;;;;;;;12.20;4.40;;;25.50;99.90;;;;;;4973119;28;20034;-47
2022/07/05 06:31:44;;;;;;;14.35;3.90;;;25.60;99.90;;;;;;4973251;28;20018;-47
2022/07/05 06:34:10;;;;;;;11.73;3.78;;;25.60;99.90;;;;;;4973226;28;20046;-47
2022/07/05 06:36:36;;;;;;;11.05;3.78;;;25.70;99.90;;;;;;4973165;28;20053;-47
2022/07/05 06:39:01;;;;;;;13.35;3.95;;;25.70;99.90;;;;;;4973026;28;20472;-47
2022/07/05 06:41:27;;;;;;;9.23;3.88;;;25.70;99.90;;;;;;4972999;28;20031;-46
2022/07/05 06:43:53;;;;;;;13.80;4.30;;;25.70;99.90;;;;;;4972879;28;20038;-47
2022/07/05 06:46:19;;;;;;;10.73;4.60;;;25.80;99.90;;;;;;4972767;28;20034;-47
2022/07/05 06:48:44;;;;;;;17.88;4.53;;;25.80;99.90;;;;;;4972977;28;20034;-47
2022/07/05 06:51:10;;;;;;;13.82;4.53;;;25.80;99.90;;;;;;4972789;28;20030;-47
2022/07/05 06:53:36;;;;;;;9.80;3.90;;;25.90;99.90;;;;;;4972754;28;20097;-47
2022/07/05 06:56:02;;;;;;;17.58;4.35;;;25.90;99.90;;;;;;4955443;28;20035;-47
2022/07/05 06:58:27;;;;;;;12.90;4.38;;;25.90;99.90;;;;;;4972571;28;20499;-47
2022/07/05 07:00:53;;;;;;;19.38;4.00;;;25.90;99.90;;;;;;4972581;28;20054;-47
2022/07/05 07:03:19;;;;;;;13.18;4.70;;;25.90;99.90;;;;;;4972755;28;20023;-47
2022/07/05 07:05:45;;;;;;;16.38;6.07;;;25.90;99.90;;;;;;4954924;28;20167;-47
2022/07/05 07:10:55;;;;;;;14.77;4.10;;;26.00;99.90;;;;;;4972716;28;20045;-47
2022/07/05 07:13:20;;;;;;;14.38;4.88;;;26.00;99.90;;;;;;4972605;28;20454;-48
2022/07/05 07:15:47;;;;;;;12.43;5.13;;;26.00;99.90;;;;;;4972469;28;20519;-47
2022/07/05 07:18:15;;;;;;;13.35;4.80;;;26.00;99.90;;;;;;4972474;28;20027;-48
2022/07/05 07:20:41;;;;;;;17.65;5.72;;;26.10;99.90;;;;;;4972360;28;20505;-47
2022/07/05 07:23:07;;;;;;;21.73;6.40;;;26.20;99.90;;;;;;4972360;28;20038;-48
2022/07/05 07:25:32;;;;;;;26.50;6.30;;;26.20;99.90;;;;;;4955090;28;20034;-48
2022/07/05 07:27:58;;;;;;;18.02;5.90;;;26.20;99.90;;;;;;4972399;28;20058;-48
2022/07/05 07:30:26;;;;;;;26.85;6.88;;;26.20;99.90;;;;;;4972360;28;20075;-47
2022/07/05 07:32:52;;;;;;;25.00;5.13;;;26.30;99.90;;;;;;4972592;28;20489;-47
2022/07/05 07:35:19;;;;;;;17.75;5.85;;;26.30;99.90;;;;;;4972451;28;20031;-48
2022/07/05 07:37:45;;;;;;;18.20;5.60;;;26.30;99.90;;;;;;4972232;28;20030;-47
2022/07/05 07:40:11;;;;;;;18.48;5.80;;;26.30;99.90;;;;;;4972083;28;20023;-47
2022/07/05 07:42:37;;;;;;;15.63;5.25;;;26.30;99.90;;;;;;4972226;28;20164;-47
2022/07/05 07:45:03;;;;;;;19.10;5.88;;;26.30;99.90;;;;;;4972194;28;20077;-47
2022/07/05 07:47:30;;;;;;;17.47;4.80;;;26.30;99.90;;;;;;4972221;28;20449;-47
2022/07/05 07:49:56;;;;;;;19.80;5.95;;;26.30;99.90;;;;;;4972066;28;20257;-47
2022/07/05 07:52:22;;;;;;;16.30;4.95;;;26.40;99.90;;;;;;4972492;28;20159;-47
2022/07/05 07:54:48;;;;;;;18.08;4.55;;;26.50;99.90;;;;;;4971979;28;20390;-47
2022/07/05 07:57:14;;;;;;;16.85;5.35;;;26.50;99.90;;;;;;4971954;28;20030;-47
2022/07/05 07:59:40;;;;;;;20.90;7.07;;;26.60;99.90;;;;;;4975287;28;20093;-46
2022/07/05 08:02:06;;;;;;;19.20;6.60;;;26.60;99.90;;;;;;4975878;28;20035;-47
2022/07/05 08:04:31;;;;;;;18.05;5.50;;;26.60;99.90;;;;;;4975776;28;20073;-46
2022/07/05 08:06:57;;;;;;;23.38;6.60;;;26.60;99.90;;;;;;4975683;28;20047;-47
2022/07/05 08:09:23;;;;;;;19.65;6.47;;;26.60;99.90;;;;;;4976083;28;20383;-47
2022/07/05 08:11:49;;;;;;;19.90;5.45;;;26.60;99.90;;;;;;4975713;28;20033;-47
2022/07/05 08:14:16;;;;;;;10.32;4.43;;;26.60;99.90;;;;;;4975684;28;20442;-47
2022/07/05 08:16:42;;;;;;;22.20;5.68;;;26.60;99.90;;;;;;4975747;28;20027;-47
2022/07/05 08:21:52;;;;;;;14.45;4.95;;;26.60;99.90;;;;;;4975591;28;20093;-47
2022/07/05 08:24:18;;;;;;;20.77;5.97;;;26.60;99.90;;;;;;4975545;28;20480;-46
2022/07/05 08:26:44;;;;;;;18.92;5.93;;;26.60;99.90;;;;;;4975263;28;20039;-47
2022/07/05 08:29:12;;;;;;;16.35;5.35;;;26.60;99.90;;;;;;4975257;28;20069;-47
2022/07/05 08:31:40;;;;;;;19.50;4.90;;;26.60;99.90;;;;;;4958003;28;20041;-47
2022/07/05 08:34:06;;;;;;;15.07;5.10;;;26.50;99.90;;;;;;4957969;28;20234;-47
2022/07/05 08:36:32;;;;;;;14.05;4.20;;;26.50;99.90;;;;;;4975273;28;20106;-47
2022/07/05 08:38:57;;;;;;;18.83;5.50;;;26.50;99.90;;;;;;4975404;28;20055;-47
2022/07/05 08:41:24;;;;;;;12.93;3.70;;;26.50;99.90;;;;;;4975255;28;20031;-47
2022/07/05 08:43:51;;;;;;;22.25;5.78;;;26.50;99.90;;;;;;4974845;28;20026;-46
2022/07/05 08:46:18;;;;;;;13.77;4.03;;;26.50;99.90;;;;;;4974827;28;20042;-46
2022/07/05 08:48:48;;;;;;;14.95;3.55;;;26.50;99.90;;;;;;4975032;28;20038;-46
2022/07/05 08:51:16;;;;;;;23.20;5.03;;;26.50;99.90;;;;;;4974953;28;20035;-47
2022/07/05 08:53:44;;;;;;;20.42;5.00;;;26.60;99.90;;;;;;4974886;28;20023;-47
2022/07/05 08:56:11;;;;;;;19.40;3.90;;;26.60;99.90;;;;;;4975031;28;20042;-47
2022/07/05 08:58:37;;;;;;;15.50;4.88;;;26.60;99.90;;;;;;4974829;28;20023;-47
2022/07/05 09:01:04;;;;;;;16.90;4.93;;;26.70;99.90;;;;;;4974655;28;20441;-46
2022/07/05 09:03:37;;;;;;;20.60;5.15;;;26.70;99.90;;;;;;4974641;28;20023;-47
2022/07/05 09:06:07;;;;;;;17.23;4.57;;;26.70;99.90;;;;;;4974606;28;20507;-47
2022/07/05 09:08:39;;;;;;;18.98;5.15;;;26.80;99.90;;;;;;4974599;28;20075;-49
2022/07/05 09:11:10;;;;;;;14.18;4.72;;;26.80;99.90;;;;;;4973756;28;20113;-48
2022/07/05 09:13:38;;;;;;;15.90;4.18;;;26.80;99.90;;;;;;4974516;28;20019;-48
2022/07/05 09:16:04;;;;;;;17.60;4.45;;;26.90;99.90;;;;;;4974660;28;20038;-47
2022/07/05 09:18:50;;;;;;;16.77;4.75;;;26.90;99.90;;;;;;4974649;28;20392;-47
2022/07/05 09:21:16;;;;;;;15.20;4.38;;;27.00;99.90;;;;;;4974548;28;20027;-48
2022/07/05 09:23:43;;;;;;;15.40;5.28;;;27.10;99.90;;;;;;4957108;28;20441;-47
2022/07/05 09:26:09;;;;;;;18.40;5.07;;;27.10;99.90;;;;;;4974396;28;20053;-47
2022/07/05 09:28:35;;;;;;;20.02;4.72;;;27.10;99.90;;;;;;4974261;28;20280;-47
2022/07/05 09:31:01;;;;;;;12.80;4.63;;;27.20;99.90;;;;;;4974243;28;20054;-47
2022/07/05 09:33:27;;;;;;;17.27;5.35;;;27.20;99.90;;;;;;4974455;28;20139;-47
2022/07/05 09:36:01;;;;;;;15.05;4.93;;;27.30;99.90;;;;;;4974257;28;20477;-47
2022/07/05 09:38:27;;;;;;;15.52;4.43;;;27.30;99.90;;;;;;4974277;28;20081;-47
2022/07/05 09:40:55;;;;;;;16.38;3.97;;;27.30;99.90;;;;;;4974221;28;20477;-48
2022/07/05 09:43:30;;;;;;;15.75;5.45;;;27.30;99.90;;;;;;4974061;28;20023;-47
2022/07/05 09:46:01;;;;;;;18.55;3.95;;;27.30;99.90;;;;;;4973899;28;20027;-48
2022/07/05 09:48:28;;;;;;;15.45;4.15;;;27.40;99.90;;;;;;4974151;28;20519;-48
2022/07/05 09:51:12;;;;;;;14.18;4.00;;;27.40;99.90;;;;;;4974051;28;20090;-47
2022/07/05 09:54:04;;;;;;;13.02;4.60;;;27.40;99.90;;;;;;4973872;28;20039;-47
2022/07/05 09:56:42;;;;;;;11.20;4.15;;;27.50;99.90;;;;;;4970306;28;20035;-47
2022/07/05 09:59:19;;;;;;;15.65;4.10;;;27.50;99.90;;;;;;4973722;28;20019;-47
2022/07/05 10:01:45;;;;;;;21.13;6.47;;;27.50;99.90;;;;;;4973408;28;20078;-48
2022/07/05 10:04:11;;;;;;;17.83;4.22;;;27.60;99.90;;;;;;4973745;28;20105;-49
2022/07/05 10:06:37;;;;;;;11.20;4.50;;;27.60;99.90;;;;;;4973464;28;20038;-49
2022/07/05 10:09:04;;;;;;;13.90;5.30;;;27.60;99.90;;;;;;4956274;28;20495;-48
2022/07/05 10:11:34;;;;;;;16.40;5.55;;;27.70;99.90;;;;;;4973091;28;20127;-48
2022/07/05 10:14:03;;;;;;;17.88;4.25;;;27.70;99.90;;;;;;4973690;28;20023;-49
2022/07/05 10:16:29;;;;;;;10.15;3.88;;;27.80;99.90;;;;;;4956490;28;20024;-48
2022/07/05 10:18:56;;;;;;;17.20;3.30;;;27.80;99.90;;;;;;4973480;28;20102;-48
2022/07/05 10:21:24;;;;;;;11.98;3.25;;;27.80;99.90;;;;;;4973011;28;20031;-48
2022/07/05 10:23:55;;;;;;;;;;;27.80;99.90;;;;;;4973828;28;20074;-47
2022/07/05 10:26:23;;;;;;;14.55;4.15;;;27.90;99.90;;;;;;4973207;28;19914;-48
2022/07/05 10:28:51;;;;;;;11.82;4.60;;;27.90;99.90;;;;;;4973061;28;20417;-48
2022/07/05 10:31:18;;;;;;;13.77;3.83;;;27.90;99.90;;;;;;4973245;28;20039;-47
2022/07/05 10:33:45;;;;;;;16.40;3.63;;;27.90;99.90;;;;;;4955868;28;20043;-48
2022/07/05 10:36:12;;;;;;;9.88;3.38;;;27.90;99.90;;;;;;4973216;28;20034;-47
2022/07/05 10:38:41;;;;;;;8.73;3.33;;;27.90;99.90;;;;;;4972988;28;20077;-48
2022/07/05 10:41:10;;;;;;;11.02;4.05;;;27.90;99.90;;;;;;4972852;28;20031;-47
2022/07/05 10:43:36;;;;;;;14.48;3.47;;;27.90;99.90;;;;;;4973073;28;20022;-48
2022/07/05 10:46:07;;;;;;;15.80;4.07;;;27.90;99.90;;;;;;4972705;28;20067;-47
2022/07/05 10:48:33;;;;;;;10.75;3.10;;;28.00;99.90;;;;;;4972963;28;20496;-47
2022/07/05 10:51:15;;;;;;;12.52;3.15;;;28.00;99.90;;;;;;4972998;28;20131;-48
2022/07/05 10:53:40;;;;;;;15.63;4.05;;;28.00;99.90;;;;;;4972959;28;20023;-47
2022/07/05 10:56:06;;;;;;;11.98;3.60;;;28.00;99.90;;;;;;4972601;28;20029;-47
2022/07/05 10:58:39;;;;;;;13.95;3.03;;;28.10;99.90;;;;;;4972907;28;20477;-50
2022/07/05 11:01:21;;;;;;;12.40;4.25;;;28.10;99.90;;;;;;4972384;28;20050;-47
2022/07/05 11:03:47;;;;;;;13.27;3.15;;;28.10;99.90;;;;;;4972608;28;20038;-47
2022/07/05 11:06:27;;;;;;;12.32;3.70;;;28.20;99.90;;;;;;4972361;28;20493;-47
2022/07/05 11:08:59;;;;;;;12.57;3.30;;;28.20;99.90;;;;;;4972530;28;20073;-47
2022/07/05 11:11:26;;;;;;;11.15;3.30;;;28.20;99.90;;;;;;4955046;28;20029;-47
2022/07/05 11:13:55;;;;;;;13.95;3.28;;;28.20;99.90;;;;;;4972384;28;20105;-47
2022/07/05 11:16:33;;;;;;;10.07;4.05;;;28.20;99.90;;;;;;4972369;28;20026;-47
2022/07/05 11:19:09;;;;;;;8.38;3.50;;;28.20;99.90;;;;;;4972596;28;20034;-47
2022/07/05 11:21:37;;;;;;;13.98;3.65;;;28.30;99.90;;;;;;4972463;28;20023;-47
2022/07/05 11:24:25;;;;;;;11.23;3.25;;;28.30;99.90;;;;;;4972552;28;20109;-47
2022/07/05 11:26:54;;;;;;;10.27;3.33;;;28.40;99.90;;;;;;4971204;28;20436;-48
2022/07/05 11:29:42;;;;;;;11.90;3.00;;;28.50;99.90;;;;;;4972168;28;20516;-48
2022/07/05 11:32:32;;;;;;;12.55;3.50;;;28.50;99.90;;;;;;4971683;28;20086;-48
2022/07/05 11:35:14;;;;;;;20.50;11.02;;;28.50;99.90;;;;;;4946981;28;20046;-47
2022/07/05 11:38:03;;;;;;;13.85;5.35;;;28.40;99.90;;;;;;4972119;28;20065;-47
2022/07/05 11:40:34;;;;;;;16.83;6.28;;;28.30;99.90;;;;;;4954810;28;20019;-47
2022/07/05 11:43:02;;;;;;;13.43;4.85;;;28.30;99.90;;;;;;4969930;28;20082;-46
2022/07/05 11:45:29;;;;;;;9.25;3.30;;;28.50;99.90;;;;;;4971037;28;20046;-46
2022/07/05 11:47:58;;;;;;;17.48;4.68;;;28.50;99.90;;;;;;4948847;28;20377;-46
2022/07/05 11:50:30;;;;;;;15.85;6.30;;;28.50;99.90;;;;;;4968343;28;20042;-45
2022/07/05 11:52:57;;;;;;;18.67;4.10;;;28.60;99.90;;;;;;4962817;28;20031;-47
2022/07/05 11:55:26;;;;;;;13.53;3.50;;;28.70;99.90;;;;;;4952336;28;20070;-47
2022/07/05 11:57:53;;;;;;;13.82;4.43;;;28.70;99.90;;;;;;4952260;28;20027;-46
2022/07/05 12:00:30;;;;;;;16.48;4.13;;;28.70;99.90;;;;;;4971859;28;20050;-46
2022/07/05 12:02:56;;;;;;;14.98;4.28;;;28.70;99.90;;;;;;4991209;28;20030;-49
2022/07/05 12:05:22;;;;;;;11.35;3.75;;;28.70;99.90;;;;;;4990673;28;20069;-48
2022/07/05 12:07:52;;;;;;;15.77;5.20;;;28.70;99.90;;;;;;4990148;28;20157;-48
2022/07/05 12:13:07;;;;;;;12.13;3.95;;;28.60;99.90;;;;;;4990097;28;20543;-48
2022/07/05 12:15:34;;;;;;;14.45;4.65;;;28.60;99.90;;;;;;4990073;28;20026;-47
2022/07/05 12:18:03;;;;;;;14.35;4.38;;;28.50;99.90;;;;;;4990158;28;20046;-48
2022/07/05 12:20:30;;;;;;;19.05;5.78;;;28.50;99.90;;;;;;4989880;28;20487;-48
2022/07/05 12:22:58;;;;;;;15.23;5.55;;;28.40;99.90;;;;;;4990915;28;20053;-47
2022/07/05 12:25:25;;;;;;;13.82;6.00;;;28.40;99.90;;;;;;4977349;28;20453;-47
2022/07/05 12:27:53;;;;;;;17.10;5.47;;;28.30;99.90;;;;;;4990468;28;20077;-47
2022/07/05 12:30:19;;;;;;;16.65;9.32;;;28.10;99.90;;;;;;4990037;28;20444;-48
2022/07/05 12:33:00;;;;;;;11.77;5.15;;;28.10;99.90;;;;;;4990176;28;20544;-48
2022/07/05 12:35:46;;;;;;;22.80;12.50;;;28.00;99.90;;;;;;4989802;28;20049;-48
2022/07/05 12:38:16;;;;;;;14.63;5.68;;;27.80;99.90;;;;;;4979705;28;20030;-48
2022/07/05 12:40:44;;;;;;;18.63;6.72;;;27.90;99.90;;;;;;4990647;28;20081;-49
2022/07/05 12:43:19;;;;;;;24.42;6.40;;;27.90;99.90;;;;;;4989384;28;20031;-49
2022/07/05 12:46:02;;;;;;;14.55;5.80;;;28.10;99.90;;;;;;4993502;28;20034;-47
2022/07/05 12:48:32;;;;;;;14.93;5.32;;;28.20;99.90;;;;;;4993423;28;20081;-48